createdAt,value
2023-01-22T00:01:02.285Z,101604.00
2023-01-22T00:03:31.721Z,101598.00
2023-01-22T00:05:59.436Z,101604.00
2023-01-22T00:08:27.084Z,101598.00
2023-01-22T00:10:55.087Z,101603.00
2023-01-22T00:13:23.411Z,101600.00
2023-01-22T00:15:51.199Z,101608.00
2023-01-22T00:18:19.477Z,101602.00
2023-01-22T00:20:48.581Z,101604.00
2023-01-22T00:23:16.521Z,101606.00
2023-01-22T00:25:44.525Z,101599.00
2023-01-22T00:28:15.181Z,101598.00
2023-01-22T00:30:42.857Z,101594.00
2023-01-22T00:33:10.500Z,101594.00
2023-01-22T00:35:40.447Z,101596.00
2023-01-22T00:38:08.113Z,101598.00
2023-01-22T00:40:35.954Z,101596.00
2023-01-22T00:43:03.534Z,101595.00
2023-01-22T00:45:31.294Z,101602.00
2023-01-22T00:48:01.168Z,101593.00
2023-01-22T00:50:28.804Z,101589.00
2023-01-22T00:52:56.445Z,101590.00
2023-01-22T00:55:24.283Z,101589.00
2023-01-22T00:57:51.986Z,101586.00
2023-01-22T01:00:20.429Z,101592.00
2023-01-22T01:03:08.272Z,101585.00
2023-01-22T01:05:36.105Z,101586.00
2023-01-22T01:08:03.799Z,101588.00
2023-01-22T01:10:31.698Z,101590.00
2023-01-22T01:12:59.454Z,101588.00
2023-01-22T01:15:27.156Z,101580.00
2023-01-22T01:17:56.342Z,101581.00
2023-01-22T01:20:24.221Z,101586.00
2023-01-22T01:22:51.958Z,101582.00
2023-01-22T01:25:19.666Z,101582.00
2023-01-22T01:27:47.332Z,101579.00
2023-01-22T01:30:15.224Z,101580.00
2023-01-22T01:32:43.010Z,101568.00
2023-01-22T01:35:10.675Z,101577.00
2023-01-22T01:37:40.156Z,101578.00
2023-01-22T01:40:08.101Z,101578.00
2023-01-22T01:42:38.946Z,101577.00
2023-01-22T01:45:23.332Z,101577.00
2023-01-22T01:47:55.585Z,101571.00
2023-01-22T01:50:23.642Z,101577.00
2023-01-22T01:52:51.361Z,101575.00
2023-01-22T01:55:20.143Z,101570.00
2023-01-22T01:57:47.804Z,101566.00
2023-01-22T02:00:16.002Z,101567.00
2023-01-22T02:02:45.544Z,101570.00
2023-01-22T02:05:13.417Z,101565.00
2023-01-22T02:07:42.243Z,101572.00
2023-01-22T02:10:11.467Z,101572.00
2023-01-22T02:12:39.506Z,101573.00
2023-01-22T02:15:07.531Z,101566.00
2023-01-22T02:17:35.179Z,101570.00
2023-01-22T02:20:03.886Z,101569.00
2023-01-22T02:22:32.797Z,101576.00
2023-01-22T02:25:01.872Z,101566.00
2023-01-22T02:27:29.706Z,101568.00
2023-01-22T02:29:57.413Z,101566.00
2023-01-22T02:32:25.304Z,101571.00
2023-01-22T02:34:55.110Z,101572.00
2023-01-22T02:37:22.884Z,101583.00
2023-01-22T02:39:50.823Z,101576.00
2023-01-22T02:42:18.721Z,101576.00
2023-01-22T02:44:46.616Z,101578.00
2023-01-22T02:47:14.590Z,101581.00
2023-01-22T02:49:42.352Z,101582.00
2023-01-22T02:52:10.091Z,101582.00
2023-01-22T02:54:37.934Z,101580.00
2023-01-22T02:57:05.616Z,101581.00
2023-01-22T02:59:33.402Z,101570.00
2023-01-22T03:02:01.348Z,101580.00
2023-01-22T03:04:29.594Z,101575.00
2023-01-22T03:06:57.429Z,101584.00
2023-01-22T03:09:28.768Z,101580.00
2023-01-22T03:11:58.020Z,101579.00
2023-01-22T03:14:48.997Z,101581.00
2023-01-22T03:17:39.279Z,101580.00
2023-01-22T03:20:25.943Z,101575.00
2023-01-22T03:22:54.265Z,101580.00
2023-01-22T03:25:22.017Z,101585.00
2023-01-22T03:28:09.104Z,101578.00
2023-01-22T03:30:38.944Z,101580.00
2023-01-22T03:33:08.425Z,101582.00
2023-01-22T03:35:36.617Z,101586.00
2023-01-22T03:38:18.778Z,101581.00
2023-01-22T03:40:47.216Z,101578.00
2023-01-22T03:43:15.285Z,101586.00
2023-01-22T03:45:43.615Z,101586.00
2023-01-22T03:48:15.178Z,101593.00
2023-01-22T03:50:44.244Z,101582.00
2023-01-22T03:53:13.436Z,101598.00
2023-01-22T03:55:41.290Z,101593.00
2023-01-22T03:58:10.679Z,101592.00
2023-01-22T04:00:39.109Z,101593.00
2023-01-22T04:03:08.166Z,101583.00
2023-01-22T04:05:39.412Z,101584.00
2023-01-22T04:08:07.572Z,101587.00
2023-01-22T04:10:37.142Z,101583.00
2023-01-22T04:13:04.877Z,101572.00
2023-01-22T04:15:32.548Z,101584.00
2023-01-22T04:18:03.476Z,101568.00
2023-01-22T04:20:40.872Z,101577.00
2023-01-22T04:23:30.961Z,101576.00
2023-01-22T04:25:59.315Z,101587.00
2023-01-22T04:28:27.339Z,101589.00
2023-01-22T04:30:56.512Z,101589.00
2023-01-22T04:33:50.704Z,101586.00
2023-01-22T04:36:29.002Z,101591.00
2023-01-22T04:38:56.913Z,101594.00
2023-01-22T04:41:24.781Z,101590.00
2023-01-22T04:43:53.383Z,101591.00
2023-01-22T04:46:23.987Z,101585.00
2023-01-22T04:48:52.378Z,101590.00
2023-01-22T04:51:20.283Z,101585.00
2023-01-22T04:53:48.393Z,101587.00
2023-01-22T04:56:18.485Z,101587.00
2023-01-22T04:58:46.854Z,101588.00
2023-01-22T05:01:15.989Z,101591.00
2023-01-22T05:03:45.225Z,101599.00
2023-01-22T05:06:12.865Z,101589.00
2023-01-22T05:08:40.610Z,101602.00
2023-01-22T05:11:10.238Z,101597.00
2023-01-22T05:13:44.637Z,101602.00
2023-01-22T05:16:12.499Z,101607.00
2023-01-22T05:18:40.219Z,101599.00
2023-01-22T05:21:10.866Z,101607.00
2023-01-22T05:23:38.736Z,101608.00
2023-01-22T05:26:07.693Z,101617.00
2023-01-22T05:28:45.394Z,101616.00
2023-01-22T05:31:48.439Z,101613.00
2023-01-22T05:34:29.676Z,101608.00
2023-01-22T05:36:57.561Z,101617.00
2023-01-22T05:39:27.506Z,101618.00
2023-01-22T05:41:57.683Z,101636.00
2023-01-22T05:44:26.476Z,101639.00
2023-01-22T05:46:55.863Z,101634.00
2023-01-22T05:49:26.224Z,101628.00
2023-01-22T05:51:56.935Z,101633.00
2023-01-22T05:54:24.706Z,101632.00
2023-01-22T05:56:53.150Z,101636.00
2023-01-22T05:59:20.917Z,101631.00
2023-01-22T06:01:56.512Z,101630.00
2023-01-22T06:04:24.444Z,101638.00
2023-01-22T06:06:52.722Z,101640.00
2023-01-22T06:09:22.630Z,101641.00
2023-01-22T06:11:51.062Z,101643.00
2023-01-22T06:14:19.172Z,101639.00
2023-01-22T06:16:46.929Z,101642.00
2023-01-22T06:19:50.105Z,101652.00
2023-01-22T06:22:20.161Z,101651.00
2023-01-22T06:24:52.521Z,101652.00
2023-01-22T06:27:23.222Z,101649.00
2023-01-22T06:29:55.581Z,101656.00
2023-01-22T06:32:23.693Z,101660.00
2023-01-22T06:34:52.876Z,101668.00
2023-01-22T06:37:21.933Z,101664.00
2023-01-22T06:39:50.482Z,101661.00
2023-01-22T06:42:28.162Z,101668.00
2023-01-22T06:44:57.411Z,101667.00
2023-01-22T06:47:28.376Z,101674.00
2023-01-22T06:49:56.301Z,101671.00
2023-01-22T06:52:24.275Z,101673.00
2023-01-22T06:54:52.536Z,101678.00
2023-01-22T06:57:20.470Z,101681.00
2023-01-22T06:59:48.155Z,101676.00
2023-01-22T07:02:19.210Z,101677.00
2023-01-22T07:04:47.003Z,101682.00
2023-01-22T07:07:14.653Z,101688.00
2023-01-22T07:09:42.315Z,101687.00
2023-01-22T07:12:10.008Z,101699.00
2023-01-22T07:14:37.911Z,101700.00
2023-01-22T07:17:06.908Z,101706.00
2023-01-22T07:19:34.647Z,101703.00
2023-01-22T07:22:02.370Z,101706.00
2023-01-22T07:24:30.198Z,101707.00
2023-01-22T07:26:57.939Z,101708.00
2023-01-22T07:29:25.632Z,101712.00
2023-01-22T07:31:53.490Z,101715.00
2023-01-22T07:34:21.475Z,101713.00
2023-01-22T07:36:49.216Z,101718.00
2023-01-22T07:39:16.985Z,101728.00
2023-01-22T07:41:44.657Z,101723.00
2023-01-22T07:44:12.847Z,101722.00
2023-01-22T07:46:40.601Z,101719.00
2023-01-22T07:49:08.393Z,101710.00
2023-01-22T07:51:36.402Z,101718.00
2023-01-22T07:54:04.100Z,101711.00
2023-01-22T07:56:31.854Z,101717.00
2023-01-22T07:58:59.524Z,101717.00
2023-01-22T08:01:27.286Z,101715.00
2023-01-22T08:03:55.083Z,101719.00
2023-01-22T08:06:23.233Z,101723.00
2023-01-22T08:08:50.874Z,101729.00
2023-01-22T08:11:21.604Z,101721.00
2023-01-22T08:13:49.233Z,101731.00
2023-01-22T08:16:16.987Z,101723.00
2023-01-22T08:18:44.830Z,101731.00
2023-01-22T08:21:12.543Z,101736.00
2023-01-22T08:23:45.753Z,101737.00
2023-01-22T08:26:14.547Z,101747.00
2023-01-22T08:28:42.198Z,101744.00
2023-01-22T08:31:19.232Z,101744.00
2023-01-22T08:33:50.504Z,101751.00
2023-01-22T08:36:18.267Z,101747.00
2023-01-22T08:38:46.015Z,101757.00
2023-01-22T08:41:13.558Z,101760.00
2023-01-22T08:43:41.287Z,101761.00
2023-01-22T08:46:09.141Z,101765.00
2023-01-22T08:48:36.833Z,101764.00
2023-01-22T08:51:04.714Z,101770.00
2023-01-22T08:53:32.601Z,101771.00
2023-01-22T08:56:00.699Z,101763.00
2023-01-22T08:58:29.674Z,101766.00
2023-01-22T09:00:57.338Z,101767.00
2023-01-22T09:03:25.186Z,101770.00
2023-01-22T09:05:52.912Z,101768.00
2023-01-22T09:08:23.776Z,101771.00
2023-01-22T09:10:51.811Z,101776.00
2023-01-22T09:13:19.500Z,101777.00
2023-01-22T09:15:54.335Z,101773.00
2023-01-22T09:18:23.252Z,101781.00
2023-01-22T09:20:51.206Z,101780.00
2023-01-22T09:23:20.898Z,101774.00
2023-01-22T09:25:48.904Z,101774.00
2023-01-22T09:28:16.707Z,101777.00
2023-01-22T09:30:44.477Z,101777.00
2023-01-22T09:33:12.199Z,101779.00
2023-01-22T09:35:39.921Z,101780.00
2023-01-22T09:38:07.788Z,101781.00
2023-01-22T09:40:48.626Z,101780.00
2023-01-22T09:43:22.914Z,101791.00
2023-01-22T09:45:52.767Z,101790.00
2023-01-22T09:48:20.569Z,101802.00
2023-01-22T09:50:48.354Z,101796.00
2023-01-22T09:53:17.065Z,101801.00
2023-01-22T09:55:46.387Z,101799.00
2023-01-22T09:58:15.216Z,101806.00
2023-01-22T10:00:50.776Z,101815.00
2023-01-22T10:03:37.662Z,101815.00
2023-01-22T10:06:07.460Z,101819.00
2023-01-22T10:08:38.554Z,101821.00
2023-01-22T10:11:12.091Z,101827.00
2023-01-22T10:13:39.702Z,101830.00
2023-01-22T10:16:08.240Z,101829.00
2023-01-22T10:18:45.520Z,101830.00
2023-01-22T10:21:16.790Z,101827.00
2023-01-22T10:23:45.166Z,101827.00
2023-01-22T10:26:15.207Z,101823.00
2023-01-22T10:28:44.101Z,101823.00
2023-01-22T10:31:25.443Z,101819.00
2023-01-22T10:34:03.558Z,101827.00
2023-01-22T10:36:31.464Z,101824.00
2023-01-22T10:39:03.421Z,101827.00
2023-01-22T10:41:31.891Z,101827.00
2023-01-22T10:44:28.605Z,101826.00
2023-01-22T10:46:56.374Z,101832.00
2023-01-22T10:49:27.983Z,101828.00
2023-01-22T10:51:57.225Z,101820.00
2023-01-22T10:54:32.193Z,101825.00
2023-01-22T10:57:15.154Z,101821.00
2023-01-22T10:59:48.460Z,101824.00
2023-01-22T11:02:18.356Z,101821.00
2023-01-22T11:04:46.093Z,101827.00
2023-01-22T11:07:18.507Z,101829.00
2023-01-22T11:09:47.424Z,101823.00
2023-01-22T11:12:18.381Z,101820.00
2023-01-22T11:14:46.217Z,101817.00
2023-01-22T11:17:25.492Z,101817.00
2023-01-22T11:19:58.008Z,101819.00
2023-01-22T11:22:26.989Z,101822.00
2023-01-22T11:24:55.907Z,101823.00
2023-01-22T11:27:42.303Z,101819.00
2023-01-22T11:30:30.609Z,101820.00
2023-01-22T11:33:03.469Z,101820.00
2023-01-22T11:35:40.386Z,101814.00
2023-01-22T11:38:11.009Z,101822.00
2023-01-22T11:40:54.183Z,101819.00
2023-01-22T11:43:25.925Z,101818.00
2023-01-22T11:46:16.688Z,101818.00
2023-01-22T11:49:02.960Z,101807.00
2023-01-22T11:51:30.556Z,101811.00
2023-01-22T11:54:06.742Z,101808.00
2023-01-22T11:56:34.518Z,101810.00
2023-01-22T11:59:20.857Z,101809.00
2023-01-22T12:02:07.368Z,101809.00
2023-01-22T12:04:35.043Z,101810.00
2023-01-22T12:07:08.982Z,101811.00
2023-01-22T12:09:45.797Z,101811.00
2023-01-22T12:12:32.243Z,101813.00
2023-01-22T12:15:06.777Z,101812.00
2023-01-22T12:17:34.334Z,101807.00
2023-01-22T12:20:02.083Z,101819.00
2023-01-22T12:22:50.989Z,101812.00
2023-01-22T12:25:23.442Z,101813.00
2023-01-22T12:27:54.177Z,101820.00
2023-01-22T12:30:28.761Z,101819.00
2023-01-22T12:32:57.916Z,101818.00
2023-01-22T12:35:27.087Z,101819.00
2023-01-22T12:38:00.794Z,101815.00
2023-01-22T12:40:34.541Z,101817.00
2023-01-22T12:43:07.683Z,101823.00
2023-01-22T12:45:45.626Z,101820.00
2023-01-22T12:48:27.352Z,101820.00
2023-01-22T12:50:56.004Z,101824.00
2023-01-22T12:53:23.805Z,101824.00
2023-01-22T12:56:07.927Z,101817.00
2023-01-22T12:58:40.051Z,101817.00
2023-01-22T13:01:11.677Z,101821.00
2023-01-22T13:03:40.128Z,101824.00
2023-01-22T13:06:43.232Z,101825.00
2023-01-22T13:09:26.384Z,101824.00
2023-01-22T13:11:54.307Z,101823.00
2023-01-22T13:14:29.050Z,101824.00
2023-01-22T13:17:04.664Z,101825.00
2023-01-22T13:19:42.571Z,101829.00
2023-01-22T13:22:11.535Z,101831.00
2023-01-22T13:24:39.365Z,101833.00
2023-01-22T13:27:07.113Z,101829.00
2023-01-22T13:29:37.742Z,101828.00
2023-01-22T13:32:19.010Z,101839.00
2023-01-22T13:34:48.269Z,101837.00
2023-01-22T13:37:26.640Z,101841.00
2023-01-22T13:39:54.487Z,101832.00
2023-01-22T13:42:22.287Z,101838.00
2023-01-22T13:44:50.172Z,101845.00
2023-01-22T13:47:28.569Z,101847.00
2023-01-22T13:49:56.383Z,101852.00
2023-01-22T13:52:25.464Z,101847.00
2023-01-22T13:54:58.940Z,101849.00
2023-01-22T13:57:26.679Z,101857.00
2023-01-22T14:00:00.930Z,101852.00
2023-01-22T14:02:32.757Z,101862.00
2023-01-22T14:05:00.656Z,101854.00
2023-01-22T14:07:29.950Z,101863.00
2023-01-22T14:09:58.245Z,101862.00
2023-01-22T14:12:27.075Z,101869.00
2023-01-22T14:14:55.286Z,101870.00
2023-01-22T14:17:24.674Z,101861.00
2023-01-22T14:19:52.906Z,101865.00
2023-01-22T14:22:20.826Z,101881.00
2023-01-22T14:24:55.203Z,101870.00
2023-01-22T14:27:23.673Z,101863.00
2023-01-22T14:29:52.357Z,101870.00
2023-01-22T14:32:20.090Z,101862.00
2023-01-22T14:34:47.721Z,101864.00
2023-01-22T14:37:18.650Z,101865.00
2023-01-22T14:39:46.482Z,101870.00
2023-01-22T14:42:14.061Z,101860.00
2023-01-22T14:44:41.786Z,101870.00
2023-01-22T14:47:09.475Z,101863.00
2023-01-22T14:49:37.320Z,101863.00
2023-01-22T14:52:05.395Z,101874.00
2023-01-22T14:54:33.174Z,101874.00
2023-01-22T14:57:03.600Z,101882.00
2023-01-22T14:59:31.566Z,101880.00
2023-01-22T15:02:00.573Z,101885.00
2023-01-22T15:04:28.441Z,101889.00
2023-01-22T15:06:56.236Z,101886.00
2023-01-22T15:09:24.106Z,101877.00
2023-01-22T15:11:51.793Z,101891.00
2023-01-22T15:14:19.828Z,101890.00
2023-01-22T15:16:47.748Z,101889.00
2023-01-22T15:19:17.569Z,101893.00
2023-01-22T15:21:47.581Z,101894.00
2023-01-22T15:24:15.275Z,101901.00
2023-01-22T15:26:44.796Z,101902.00
2023-01-22T15:29:12.973Z,101905.00
2023-01-22T15:31:40.827Z,101909.00
2023-01-22T15:34:09.005Z,101916.00
2023-01-22T15:36:37.329Z,101921.00
2023-01-22T15:39:05.079Z,101925.00
2023-01-22T15:41:33.863Z,101922.00
2023-01-22T15:44:02.071Z,101914.00
2023-01-22T15:46:30.842Z,101921.00
2023-01-22T15:48:59.041Z,101919.00
2023-01-22T15:51:27.305Z,101932.00
2023-01-22T15:53:56.597Z,101935.00
2023-01-22T15:56:26.096Z,101929.00
2023-01-22T15:58:53.999Z,101933.00
2023-01-22T16:01:22.596Z,101937.00
2023-01-22T16:03:50.416Z,101936.00
2023-01-22T16:06:19.599Z,101933.00
2023-01-22T16:08:47.197Z,101942.00
2023-01-22T16:11:15.103Z,101932.00
2023-01-22T16:13:43.109Z,101940.00
2023-01-22T16:16:18.416Z,101949.00
2023-01-22T16:18:46.405Z,101951.00
2023-01-22T16:21:14.783Z,101946.00
2023-01-22T16:23:43.452Z,101944.00
2023-01-22T16:26:13.534Z,101951.00
2023-01-22T16:28:41.806Z,101959.00
2023-01-22T16:31:11.102Z,101954.00
2023-01-22T16:33:39.612Z,101958.00
2023-01-22T16:36:08.571Z,101962.00
2023-01-22T16:38:36.863Z,101954.00
2023-01-22T16:41:24.078Z,101960.00
2023-01-22T16:43:53.646Z,101957.00
2023-01-22T16:46:25.929Z,101962.00
2023-01-22T16:48:57.515Z,101963.00
2023-01-22T16:51:25.653Z,101966.00
2023-01-22T16:53:53.640Z,101966.00
2023-01-22T16:56:21.261Z,101965.00
2023-01-22T16:58:49.295Z,101968.00
2023-01-22T17:01:17.283Z,101976.00
2023-01-22T17:03:45.009Z,101964.00
2023-01-22T17:06:22.240Z,101971.00
2023-01-22T17:08:50.102Z,101972.00
2023-01-22T17:11:18.218Z,101972.00
2023-01-22T17:13:46.099Z,101982.00
2023-01-22T17:16:14.542Z,101979.00
2023-01-22T17:18:42.634Z,101979.00
2023-01-22T17:21:11.932Z,101973.00
2023-01-22T17:23:39.825Z,101986.00
2023-01-22T17:26:09.064Z,101976.00
2023-01-22T17:28:37.939Z,101988.00
2023-01-22T17:31:07.109Z,101991.00
2023-01-22T17:33:35.178Z,101981.00
2023-01-22T17:36:04.108Z,101995.00
2023-01-22T17:38:34.086Z,101996.00
2023-01-22T17:41:17.435Z,101995.00
2023-01-22T17:43:45.817Z,102001.00
2023-01-22T17:46:35.466Z,102010.00
2023-01-22T17:49:04.872Z,102009.00
2023-01-22T17:51:33.422Z,102006.00
2023-01-22T17:54:06.340Z,102011.00
2023-01-22T17:56:35.332Z,102009.00
2023-01-22T17:59:04.023Z,102016.00
2023-01-22T18:01:32.613Z,102012.00
2023-01-22T18:04:01.969Z,102013.00
2023-01-22T18:06:29.625Z,102021.00
2023-01-22T18:08:57.386Z,102020.00
2023-01-22T18:11:29.211Z,102022.00
2023-01-22T18:14:21.825Z,102024.00
2023-01-22T18:16:49.827Z,102023.00
2023-01-22T18:19:19.005Z,102019.00
2023-01-22T18:21:46.781Z,102020.00
2023-01-22T18:24:14.671Z,102030.00
2023-01-22T18:26:42.689Z,102023.00
2023-01-22T18:29:11.807Z,102037.00
2023-01-22T18:31:39.891Z,102036.00
2023-01-22T18:34:08.086Z,102034.00
2023-01-22T18:36:37.039Z,102036.00
2023-01-22T18:39:09.085Z,102040.00
2023-01-22T18:41:36.985Z,102049.00
2023-01-22T18:44:04.886Z,102047.00
2023-01-22T18:46:37.116Z,102035.00
2023-01-22T18:49:07.665Z,102039.00
2023-01-22T18:51:35.522Z,102043.00
2023-01-22T18:54:05.052Z,102049.00
2023-01-22T18:56:32.860Z,102049.00
2023-01-22T18:59:10.511Z,102041.00
2023-01-22T19:01:38.720Z,102037.00
2023-01-22T19:04:07.451Z,102035.00
2023-01-22T19:06:39.917Z,102046.00
2023-01-22T19:09:09.524Z,102047.00
2023-01-22T19:11:37.954Z,102042.00
2023-01-22T19:14:07.449Z,102049.00
2023-01-22T19:16:35.815Z,102055.00
2023-01-22T19:19:04.464Z,102052.00
2023-01-22T19:21:32.067Z,102062.00
2023-01-22T19:24:00.833Z,102071.00
2023-01-22T19:26:33.139Z,102063.00
2023-01-22T19:29:02.044Z,102063.00
2023-01-22T19:31:30.845Z,102070.00
2023-01-22T19:33:58.771Z,102072.00
2023-01-22T19:36:28.366Z,102071.00
2023-01-22T19:38:56.559Z,102078.00
2023-01-22T19:41:25.059Z,102077.00
2023-01-22T19:43:53.410Z,102074.00
2023-01-22T19:46:26.267Z,102076.00
2023-01-22T19:48:54.294Z,102080.00
2023-01-22T19:51:22.568Z,102075.00
2023-01-22T19:53:50.353Z,102076.00
2023-01-22T19:56:19.402Z,102074.00
2023-01-22T19:58:50.570Z,102080.00
2023-01-22T20:01:19.157Z,102072.00
2023-01-22T20:03:47.960Z,102082.00
2023-01-22T20:06:16.335Z,102087.00
2023-01-22T20:08:53.697Z,102085.00
2023-01-22T20:11:22.128Z,102079.00
2023-01-22T20:13:49.941Z,102087.00
2023-01-22T20:16:19.414Z,102086.00
2023-01-22T20:18:47.369Z,102090.00
2023-01-22T20:21:16.834Z,102093.00
2023-01-22T20:23:45.740Z,102094.00
2023-01-22T20:26:14.115Z,102098.00
2023-01-22T20:28:41.750Z,102089.00
2023-01-22T20:31:12.373Z,102091.00
2023-01-22T20:33:40.405Z,102100.00
2023-01-22T20:36:10.751Z,102097.00
2023-01-22T20:38:38.406Z,102102.00
2023-01-22T20:41:09.410Z,102093.00
2023-01-22T20:43:37.973Z,102086.00
2023-01-22T20:46:06.880Z,102090.00
2023-01-22T20:48:34.800Z,102105.00
2023-01-22T20:51:02.736Z,102095.00
2023-01-22T20:53:31.181Z,102102.00
2023-01-22T20:56:02.891Z,102108.00
2023-01-22T20:58:30.728Z,102113.00
2023-01-22T21:01:05.719Z,102110.00
2023-01-22T21:03:33.484Z,102114.00
2023-01-22T21:06:01.942Z,102106.00
2023-01-22T21:08:29.499Z,102112.00
2023-01-22T21:10:58.240Z,102116.00
2023-01-22T21:13:26.190Z,102116.00
2023-01-22T21:15:53.892Z,102118.00
2023-01-22T21:18:22.290Z,102118.00
2023-01-22T21:20:50.390Z,102130.00
2023-01-22T21:23:18.085Z,102120.00
2023-01-22T21:25:45.739Z,102129.00
2023-01-22T21:28:13.540Z,102127.00
2023-01-22T21:30:43.426Z,102134.00
2023-01-22T21:33:11.361Z,102131.00
2023-01-22T21:35:39.102Z,102139.00
2023-01-22T21:38:06.881Z,102141.00
2023-01-22T21:40:34.569Z,102144.00
2023-01-22T21:43:20.990Z,102149.00
2023-01-22T21:46:07.647Z,102148.00
2023-01-22T21:48:35.399Z,102140.00
2023-01-22T21:51:03.421Z,102143.00
2023-01-22T21:53:33.864Z,102138.00
2023-01-22T21:56:01.422Z,102150.00
2023-01-22T21:58:29.035Z,102145.00
2023-01-22T22:01:03.305Z,102143.00
2023-01-22T22:03:34.502Z,102136.00
2023-01-22T22:06:02.513Z,102140.00
2023-01-22T22:08:30.267Z,102134.00
2023-01-22T22:10:58.108Z,102127.00
2023-01-22T22:13:25.806Z,102129.00
2023-01-22T22:15:53.537Z,102126.00
2023-01-22T22:18:21.218Z,102137.00
2023-01-22T22:20:48.999Z,102133.00
2023-01-22T22:23:16.802Z,102126.00
2023-01-22T22:25:48.984Z,102135.00
2023-01-22T22:28:17.802Z,102136.00
2023-01-22T22:30:45.559Z,102140.00
2023-01-22T22:33:14.164Z,102141.00
2023-01-22T22:35:44.162Z,102137.00
2023-01-22T22:38:12.135Z,102144.00
2023-01-22T22:40:39.942Z,102150.00
2023-01-22T22:43:07.857Z,102139.00
2023-01-22T22:45:36.129Z,102137.00
2023-01-22T22:48:04.259Z,102135.00
2023-01-22T22:50:32.092Z,102147.00
2023-01-22T22:53:00.021Z,102140.00
2023-01-22T22:55:28.929Z,102140.00
2023-01-22T22:57:56.680Z,102141.00
2023-01-22T23:00:24.544Z,102142.00
2023-01-22T23:02:52.368Z,102144.00
2023-01-22T23:05:20.315Z,102140.00
2023-01-22T23:07:48.696Z,102153.00
2023-01-22T23:10:28.997Z,102158.00
2023-01-22T23:12:57.603Z,102152.00
2023-01-22T23:15:26.577Z,102163.00
2023-01-22T23:17:54.982Z,102166.00
2023-01-22T23:20:23.152Z,102160.00
2023-01-22T23:22:53.755Z,102171.00
2023-01-22T23:25:21.680Z,102164.00
2023-01-22T23:27:49.387Z,102169.00
2023-01-22T23:30:17.433Z,102169.00
2023-01-22T23:32:45.366Z,102159.00
2023-01-22T23:35:13.396Z,102159.00
2023-01-22T23:37:41.140Z,102169.00
2023-01-22T23:40:09.136Z,102168.00
2023-01-22T23:42:36.930Z,102168.00
2023-01-22T23:45:04.821Z,102173.00
2023-01-22T23:47:32.701Z,102173.00
2023-01-22T23:50:00.382Z,102181.00
2023-01-22T23:52:28.162Z,102185.00
2023-01-22T23:54:58.129Z,102191.00
2023-01-22T23:57:25.858Z,102186.00
2023-01-22T23:59:53.557Z,102193.00
